createdAt,value
2018-06-25T00:01:56.734Z,5.10
2018-06-25T00:04:24.483Z,5.27
2018-06-25T00:06:52.270Z,4.97
2018-06-25T00:09:20.079Z,4.40
2018-06-25T00:11:47.846Z,5.17
2018-06-25T00:14:15.747Z,5.00
2018-06-25T00:16:43.456Z,5.17
2018-06-25T00:19:11.290Z,4.77
2018-06-25T00:21:39.164Z,5.20
2018-06-25T00:24:06.966Z,4.80
2018-06-25T00:26:34.698Z,4.63
2018-06-25T00:29:02.509Z,4.93
2018-06-25T00:31:30.319Z,4.40
2018-06-25T00:33:58.114Z,4.33
2018-06-25T00:36:25.822Z,4.70
2018-06-25T00:38:53.757Z,4.40
2018-06-25T00:41:21.494Z,3.80
2018-06-25T00:43:49.289Z,3.67
2018-06-25T00:46:17.057Z,3.70
2018-06-25T00:48:44.809Z,3.80
2018-06-25T00:51:12.573Z,3.23
2018-06-25T00:53:40.297Z,3.50
2018-06-25T00:56:08.042Z,3.83
2018-06-25T00:58:47.334Z,3.50
2018-06-25T01:01:15.670Z,3.23
2018-06-25T01:03:43.637Z,4.17
2018-06-25T01:06:11.494Z,3.47
2018-06-25T01:08:39.459Z,3.40
2018-06-25T01:11:07.197Z,3.70
2018-06-25T01:13:34.895Z,3.97
2018-06-25T01:16:03.024Z,3.97
2018-06-25T01:18:31.062Z,3.90
2018-06-25T01:20:58.905Z,3.80
2018-06-25T01:23:26.737Z,3.73
2018-06-25T01:25:54.750Z,3.90
2018-06-25T01:28:22.777Z,3.63
2018-06-25T01:30:50.640Z,4.17
2018-06-25T01:33:18.338Z,3.60
2018-06-25T01:35:46.193Z,4.43
2018-06-25T01:38:14.082Z,3.93
2018-06-25T01:40:41.810Z,4.13
2018-06-25T01:43:09.566Z,4.07
2018-06-25T01:45:37.393Z,4.07
2018-06-25T01:48:05.281Z,3.27
2018-06-25T01:50:33.138Z,3.27
2018-06-25T01:53:00.886Z,4.03
2018-06-25T01:55:28.668Z,3.90
2018-06-25T01:57:56.435Z,4.10
2018-06-25T02:00:24.170Z,3.40
2018-06-25T02:02:51.907Z,3.80
2018-06-25T02:05:19.699Z,4.67
2018-06-25T02:07:47.391Z,3.80
2018-06-25T02:10:15.232Z,3.93
2018-06-25T02:12:42.949Z,4.00
2018-06-25T02:15:10.694Z,3.93
2018-06-25T02:17:38.380Z,4.00
2018-06-25T02:20:06.425Z,4.50
2018-06-25T02:22:34.302Z,4.50
2018-06-25T02:25:02.027Z,4.10
2018-06-25T02:27:29.869Z,3.90
2018-06-25T02:29:57.602Z,3.37
2018-06-25T02:32:25.354Z,4.37
2018-06-25T02:34:53.081Z,4.77
2018-06-25T02:37:20.841Z,4.00
2018-06-25T02:39:48.798Z,4.13
2018-06-25T02:42:16.621Z,4.30
2018-06-25T02:44:44.373Z,4.20
2018-06-25T02:47:12.177Z,3.70
2018-06-25T02:49:39.892Z,3.30
2018-06-25T02:52:07.698Z,4.20
2018-06-25T02:54:35.441Z,3.80
2018-06-25T02:57:03.216Z,3.80
2018-06-25T02:59:30.952Z,3.80
2018-06-25T03:01:58.705Z,3.90
2018-06-25T03:04:26.425Z,3.80
2018-06-25T03:06:54.308Z,4.00
2018-06-25T03:09:22.025Z,4.30
2018-06-25T03:11:49.714Z,4.20
2018-06-25T03:14:17.445Z,4.77
2018-06-25T03:16:45.204Z,4.33
2018-06-25T03:19:12.990Z,4.57
2018-06-25T03:21:40.706Z,4.07
2018-06-25T03:24:08.415Z,4.43
2018-06-25T03:26:36.205Z,4.37
2018-06-25T03:29:04.001Z,4.10
2018-06-25T03:31:31.692Z,4.33
2018-06-25T03:33:59.421Z,3.90
2018-06-25T03:36:27.149Z,3.73
2018-06-25T03:38:54.827Z,3.30
2018-06-25T03:41:22.674Z,4.10
2018-06-25T03:43:50.413Z,3.20
2018-06-25T03:46:18.161Z,3.90
2018-06-25T03:48:45.878Z,3.30
2018-06-25T03:51:13.577Z,3.40
2018-06-25T03:53:41.475Z,3.43
2018-06-25T03:56:09.198Z,3.53
2018-06-25T03:58:37.006Z,3.70
2018-06-25T04:01:04.954Z,4.00
2018-06-25T04:03:32.694Z,3.60
2018-06-25T04:06:00.582Z,3.60
2018-06-25T04:08:28.309Z,3.80
2018-06-25T04:10:56.111Z,4.10
2018-06-25T04:13:23.875Z,4.07
2018-06-25T04:15:51.536Z,4.17
2018-06-25T04:18:19.257Z,3.77
2018-06-25T04:20:47.188Z,3.83
2018-06-25T04:23:14.894Z,4.20
2018-06-25T04:25:42.623Z,4.20
2018-06-25T04:28:10.348Z,4.10
2018-06-25T04:30:38.151Z,3.83
2018-06-25T04:33:05.878Z,3.93
2018-06-25T04:35:33.640Z,4.57
2018-06-25T04:38:01.469Z,4.30
2018-06-25T04:40:29.213Z,4.50
2018-06-25T04:42:56.981Z,4.17
2018-06-25T04:45:24.765Z,4.30
2018-06-25T04:47:52.502Z,4.30
2018-06-25T04:50:20.248Z,4.07
2018-06-25T04:52:48.013Z,4.60
2018-06-25T04:55:15.805Z,3.90
2018-06-25T04:57:43.529Z,4.10
2018-06-25T05:00:11.354Z,3.90
2018-06-25T05:02:39.309Z,3.90
2018-06-25T05:05:07.098Z,3.63
2018-06-25T05:07:34.893Z,3.60
2018-06-25T05:10:02.593Z,3.50
2018-06-25T05:12:30.355Z,3.20
2018-06-25T05:14:58.049Z,3.83
2018-06-25T05:17:25.811Z,3.83
2018-06-25T05:19:53.652Z,3.60
2018-06-25T05:22:21.415Z,3.17
2018-06-25T05:24:49.484Z,4.23
2018-06-25T05:27:17.225Z,3.90
2018-06-25T05:29:45.018Z,5.20
2018-06-25T05:32:13.660Z,4.00
2018-06-25T05:34:41.361Z,7.77
2018-06-25T05:37:09.206Z,4.30
2018-06-25T05:39:37.069Z,4.47
2018-06-25T05:42:05.206Z,4.23
2018-06-25T05:44:33.017Z,4.20
2018-06-25T05:47:00.826Z,4.50
2018-06-25T05:49:30.402Z,4.20
2018-06-25T05:52:04.611Z,4.77
2018-06-25T05:54:32.362Z,4.87
2018-06-25T05:57:00.413Z,3.87
2018-06-25T05:59:28.134Z,4.27
2018-06-25T06:01:55.909Z,4.30
2018-06-25T06:04:23.615Z,3.90
2018-06-25T06:06:51.326Z,4.00
2018-06-25T06:09:19.034Z,4.20
2018-06-25T06:11:46.789Z,6.47
2018-06-25T06:14:14.646Z,3.73
2018-06-25T06:16:42.553Z,4.40
2018-06-25T06:19:10.248Z,4.50
2018-06-25T06:21:38.013Z,4.07
2018-06-25T06:24:05.750Z,5.20
2018-06-25T06:26:33.424Z,4.40
2018-06-25T06:29:01.229Z,4.13
2018-06-25T06:31:28.948Z,4.37
2018-06-25T06:33:56.773Z,4.40
2018-06-25T06:36:24.497Z,4.40
2018-06-25T06:38:52.265Z,3.60
2018-06-25T06:41:20.044Z,3.90
2018-06-25T06:43:47.786Z,3.67
2018-06-25T06:46:15.523Z,3.90
2018-06-25T06:48:43.230Z,3.97
2018-06-25T06:51:10.981Z,3.43
2018-06-25T06:53:38.656Z,5.20
2018-06-25T06:56:06.414Z,3.70
2018-06-25T06:58:34.227Z,3.30
2018-06-25T07:01:01.965Z,4.07
2018-06-25T07:03:29.653Z,3.63
2018-06-25T07:05:57.397Z,4.00
2018-06-25T07:08:25.098Z,4.20
2018-06-25T07:10:53.078Z,3.50
2018-06-25T07:13:20.834Z,4.47
2018-06-25T07:15:48.601Z,3.40
2018-06-25T07:18:16.465Z,2.93
2018-06-25T07:20:44.244Z,3.60
2018-06-25T07:23:12.007Z,4.10
2018-06-25T07:25:39.716Z,4.43
2018-06-25T07:28:07.462Z,16.67
2018-06-25T07:30:35.202Z,4.87
2018-06-25T07:33:03.076Z,3.90
2018-06-25T07:35:30.878Z,4.03
2018-06-25T07:37:58.665Z,3.13
2018-06-25T07:40:26.399Z,4.60
2018-06-25T07:42:54.332Z,3.63
2018-06-25T07:45:22.212Z,2.80
2018-06-25T07:47:51.329Z,4.40
2018-06-25T07:50:19.131Z,2.93
2018-06-25T07:52:47.021Z,3.93
2018-06-25T07:55:14.833Z,2.60
2018-06-25T07:57:42.959Z,2.97
2018-06-25T08:00:10.770Z,2.80
2018-06-25T08:02:38.576Z,2.90
2018-06-25T08:05:06.524Z,3.00
2018-06-25T08:07:34.508Z,2.43
2018-06-25T08:10:02.381Z,2.47
2018-06-25T08:12:31.139Z,2.13
2018-06-25T08:14:58.998Z,2.57
2018-06-25T08:17:26.793Z,2.70
2018-06-25T08:19:54.685Z,2.47
2018-06-25T08:22:22.730Z,2.37
2018-06-25T08:24:50.513Z,2.37
2018-06-25T08:27:18.337Z,2.60
2018-06-25T08:29:46.136Z,2.00
2018-06-25T08:32:13.892Z,2.30
2018-06-25T08:34:41.605Z,2.70
2018-06-25T08:40:02.285Z,2.10
2018-06-25T08:42:30.083Z,2.00
2018-06-25T08:44:58.152Z,2.00
2018-06-25T08:47:25.872Z,1.90
2018-06-25T08:49:53.637Z,1.63
2018-06-25T08:52:21.451Z,1.90
2018-06-25T08:54:49.165Z,1.10
2018-06-25T08:57:16.939Z,1.30
2018-06-25T08:59:44.713Z,1.30
2018-06-25T09:02:12.510Z,1.43
2018-06-25T09:04:40.443Z,1.40
2018-06-25T09:07:08.119Z,1.50
2018-06-25T09:09:35.950Z,1.67
2018-06-25T09:12:03.731Z,1.63
2018-06-25T09:14:31.473Z,1.50
2018-06-25T09:22:44.962Z,1.60
2018-06-25T09:25:12.718Z,2.10
2018-06-25T09:27:47.319Z,1.80
2018-06-25T09:30:15.728Z,1.70
2018-06-25T09:32:43.541Z,1.40
2018-06-25T09:35:11.234Z,1.13
2018-06-25T09:37:39.000Z,1.40
2018-06-25T09:40:08.026Z,1.20
2018-06-25T09:42:35.988Z,1.33
2018-06-25T09:45:17.462Z,1.20
2018-06-25T09:47:45.358Z,0.90
2018-06-25T09:50:13.312Z,1.10
2018-06-25T09:52:41.092Z,1.20
2018-06-25T09:58:02.922Z,1.30
2018-06-25T10:00:38.990Z,1.33
2018-06-25T10:03:06.918Z,1.50
2018-06-25T10:05:34.689Z,1.27
2018-06-25T10:08:02.473Z,1.47
2018-06-25T10:10:30.355Z,1.80
2018-06-25T10:12:58.182Z,1.87
2018-06-25T10:15:26.000Z,1.70
2018-06-25T10:17:53.740Z,1.80
2018-06-25T10:20:21.612Z,1.70
2018-06-25T10:22:49.634Z,1.30
2018-06-25T10:25:17.680Z,1.57
2018-06-25T10:27:45.281Z,1.70
2018-06-25T10:30:13.761Z,1.37
2018-06-25T10:32:41.560Z,1.73
2018-06-25T10:35:09.572Z,1.33
2018-06-25T10:37:37.353Z,1.50
2018-06-25T10:40:05.262Z,1.53
2018-06-25T10:42:33.309Z,1.80
2018-06-25T10:45:01.098Z,1.40
2018-06-25T10:47:28.840Z,1.40
2018-06-25T10:49:56.608Z,1.70
2018-06-25T10:52:24.347Z,1.80
2018-06-25T10:54:52.217Z,1.60
2018-06-25T10:57:20.125Z,1.60
2018-06-25T10:59:48.316Z,1.50
2018-06-25T11:02:16.028Z,2.00
2018-06-25T11:04:43.795Z,1.80
2018-06-25T11:07:11.769Z,1.43
2018-06-25T11:09:39.521Z,1.40
2018-06-25T11:12:07.329Z,1.33
2018-06-25T11:14:35.262Z,1.20
2018-06-25T11:17:03.012Z,1.40
2018-06-25T11:19:32.618Z,1.40
2018-06-25T11:22:00.368Z,1.50
2018-06-25T11:24:28.258Z,1.50
2018-06-25T11:26:56.194Z,1.37
2018-06-25T11:29:23.824Z,1.63
2018-06-25T11:31:52.380Z,1.50
2018-06-25T11:34:20.181Z,1.50
2018-06-25T11:36:47.935Z,1.60
2018-06-25T11:39:15.730Z,1.67
2018-06-25T11:41:43.553Z,1.40
2018-06-25T11:44:11.318Z,1.43
2018-06-25T11:46:39.114Z,1.77
2018-06-25T11:49:14.093Z,1.37
2018-06-25T11:51:41.889Z,1.30
2018-06-25T11:54:09.801Z,1.60
2018-06-25T11:56:37.686Z,1.30
2018-06-25T11:59:05.559Z,1.33
2018-06-25T12:01:33.361Z,1.33
2018-06-25T12:04:01.067Z,1.27
2018-06-25T12:06:28.861Z,1.50
2018-06-25T12:09:01.125Z,1.50
2018-06-25T12:11:28.938Z,1.30
2018-06-25T12:13:58.282Z,1.13
2018-06-25T12:16:26.206Z,1.10
2018-06-25T12:18:54.006Z,0.80
2018-06-25T12:21:21.688Z,1.00
2018-06-25T12:23:49.484Z,0.80
2018-06-25T12:26:17.306Z,0.80
2018-06-25T12:28:45.090Z,0.90
2018-06-25T12:31:12.852Z,0.90
2018-06-25T12:33:40.601Z,0.60
2018-06-25T12:36:09.654Z,0.90
2018-06-25T12:38:50.194Z,1.03
2018-06-25T12:41:17.943Z,0.60
2018-06-25T12:43:45.792Z,0.80
2018-06-25T12:46:13.724Z,0.87
2018-06-25T12:48:41.374Z,0.90
2018-06-25T12:51:09.430Z,0.70
2018-06-25T12:56:30.211Z,0.67
2018-06-25T12:58:57.994Z,0.93
2018-06-25T13:04:18.680Z,0.80
2018-06-25T13:12:32.430Z,1.00
2018-06-25T13:15:00.284Z,0.90
2018-06-25T13:17:28.227Z,1.20
2018-06-25T13:19:56.044Z,1.23
2018-06-25T13:22:23.815Z,1.13
2018-06-25T13:24:51.592Z,0.80
2018-06-25T13:27:19.462Z,1.30
2018-06-25T13:32:40.492Z,0.83
2018-06-25T13:35:08.271Z,1.00
2018-06-25T13:37:36.226Z,1.10
2018-06-25T13:40:04.485Z,1.00
2018-06-25T13:42:32.422Z,1.30
2018-06-25T13:45:00.436Z,1.00
2018-06-25T13:47:28.217Z,1.00
2018-06-25T13:49:55.910Z,0.80
2018-06-25T13:52:23.645Z,1.00
2018-06-25T13:55:07.626Z,0.90
2018-06-25T13:57:35.470Z,0.80
2018-06-25T14:00:04.066Z,0.70
2018-06-25T14:02:31.882Z,0.80
2018-06-25T14:07:53.355Z,0.90
2018-06-25T14:10:28.230Z,0.80
2018-06-25T14:12:56.141Z,1.00
2018-06-25T14:15:24.131Z,0.80
2018-06-25T14:17:52.321Z,0.80
2018-06-25T14:20:20.111Z,0.90
2018-06-25T14:22:48.051Z,0.90
2018-06-25T14:25:15.826Z,0.90
2018-06-25T14:27:49.466Z,0.70
2018-06-25T14:30:23.022Z,0.80
2018-06-25T14:32:55.329Z,1.03
2018-06-25T14:35:23.180Z,0.90
2018-06-25T14:37:50.957Z,1.00
2018-06-25T14:40:18.718Z,1.07
2018-06-25T14:42:46.639Z,1.00
2018-06-25T14:45:14.770Z,1.07
2018-06-25T14:47:42.933Z,1.17
2018-06-25T14:50:10.788Z,0.97
2018-06-25T14:52:38.597Z,1.10
2018-06-25T14:55:06.429Z,1.00
2018-06-25T14:57:34.214Z,0.90
2018-06-25T15:00:02.995Z,1.00
2018-06-25T15:02:30.958Z,1.37
2018-06-25T15:04:59.142Z,1.30
2018-06-25T15:07:27.059Z,1.20
2018-06-25T15:09:59.273Z,1.10
2018-06-25T15:12:27.204Z,1.27
2018-06-25T15:14:54.970Z,0.97
2018-06-25T15:17:22.796Z,1.20
2018-06-25T15:19:50.497Z,1.40
2018-06-25T15:22:18.343Z,1.57
2018-06-25T15:24:46.157Z,1.93
2018-06-25T15:27:13.932Z,1.23
2018-06-25T15:29:41.734Z,1.20
2018-06-25T15:32:09.600Z,1.17
2018-06-25T15:34:37.358Z,1.30
2018-06-25T15:37:05.149Z,1.50
2018-06-25T15:39:33.012Z,1.17
2018-06-25T15:42:00.778Z,1.50
2018-06-25T15:44:28.908Z,1.50
2018-06-25T15:46:56.710Z,1.60
2018-06-25T15:49:24.541Z,1.20
2018-06-25T15:51:52.478Z,1.63
2018-06-25T15:54:21.306Z,1.50
2018-06-25T15:56:49.085Z,1.60
2018-06-25T15:59:16.850Z,1.23
2018-06-25T16:01:44.626Z,1.50
2018-06-25T16:04:12.623Z,1.27
2018-06-25T16:06:40.493Z,1.60
2018-06-25T16:09:08.216Z,1.13
2018-06-25T16:11:36.143Z,1.57
2018-06-25T16:14:04.381Z,1.37
2018-06-25T16:16:33.320Z,1.57
2018-06-25T16:19:01.327Z,1.30
2018-06-25T16:21:29.414Z,1.60
2018-06-25T16:23:57.162Z,1.30
2018-06-25T16:26:33.342Z,2.37
2018-06-25T16:29:01.057Z,1.60
2018-06-25T16:31:28.914Z,1.20
2018-06-25T16:33:59.467Z,1.67
2018-06-25T16:36:27.242Z,1.40
2018-06-25T16:38:55.026Z,0.90
2018-06-25T16:41:22.754Z,1.40
2018-06-25T16:43:50.561Z,1.03
2018-06-25T16:46:18.378Z,1.23
2018-06-25T16:48:46.146Z,1.10
2018-06-25T16:51:13.966Z,1.00
2018-06-25T16:53:41.778Z,1.90
2018-06-25T16:56:09.651Z,1.40
2018-06-25T16:58:37.645Z,0.87
2018-06-25T17:01:05.469Z,1.10
2018-06-25T17:03:33.218Z,1.10
2018-06-25T17:06:01.169Z,0.97
2018-06-25T17:08:28.940Z,1.07
2018-06-25T17:10:57.501Z,1.20
2018-06-25T17:13:25.112Z,1.33
2018-06-25T17:15:52.953Z,0.80
2018-06-25T17:18:20.714Z,1.40
2018-06-25T17:20:53.050Z,1.10
2018-06-25T17:23:20.812Z,1.10
2018-06-25T17:25:48.601Z,1.10
2018-06-25T17:28:16.385Z,0.90
2018-06-25T17:30:44.236Z,1.30
2018-06-25T17:33:12.094Z,1.00
2018-06-25T17:35:44.291Z,1.07
2018-06-25T17:38:20.555Z,1.00
2018-06-25T17:40:48.362Z,1.00
2018-06-25T17:43:16.193Z,1.20
2018-06-25T17:45:44.000Z,1.33
2018-06-25T17:48:12.012Z,1.50
2018-06-25T17:50:44.849Z,1.80
2018-06-25T17:53:12.700Z,1.40
2018-06-25T17:55:40.542Z,1.30
2018-06-25T17:58:08.386Z,1.00
2018-06-25T18:00:36.292Z,1.20
2018-06-25T18:03:04.112Z,1.53
2018-06-25T18:08:05.680Z,1.30
2018-06-25T18:10:33.792Z,1.27
2018-06-25T18:13:01.740Z,1.30
2018-06-25T18:18:23.672Z,1.33
2018-06-25T18:20:51.715Z,1.13
2018-06-25T18:23:19.586Z,1.27
2018-06-25T18:25:47.340Z,1.30
2018-06-25T18:28:15.368Z,1.70
2018-06-25T18:30:43.547Z,2.20
2018-06-25T18:33:11.394Z,2.40
2018-06-25T18:35:39.156Z,2.00
2018-06-25T18:38:14.396Z,1.87
2018-06-25T18:40:42.932Z,2.27
2018-06-25T18:43:10.851Z,2.00
2018-06-25T18:45:38.928Z,1.80
2018-06-25T18:48:06.749Z,2.33
2018-06-25T18:50:35.908Z,1.53
2018-06-25T18:53:04.729Z,1.60
2018-06-25T18:55:33.857Z,1.40
2018-06-25T18:58:01.709Z,1.37
2018-06-25T19:00:29.640Z,1.40
2018-06-25T19:02:57.745Z,1.40
2018-06-25T19:08:18.521Z,1.87
2018-06-25T19:10:46.477Z,2.00
2018-06-25T19:13:14.436Z,2.10
2018-06-25T19:15:42.880Z,2.27
2018-06-25T19:18:11.893Z,1.90
2018-06-25T19:20:39.791Z,2.10
2018-06-25T19:23:07.713Z,1.80
2018-06-25T19:26:03.420Z,1.87
2018-06-25T19:28:31.736Z,1.87
2018-06-25T19:30:59.753Z,2.07
2018-06-25T19:33:27.639Z,1.80
2018-06-25T19:38:48.188Z,1.70
2018-06-25T19:41:16.589Z,1.60
2018-06-25T19:44:03.768Z,1.50
2018-06-25T19:46:31.602Z,1.73
2018-06-25T19:48:59.571Z,1.90
2018-06-25T19:51:27.391Z,1.90
2018-06-25T19:53:55.464Z,1.50
2018-06-25T19:56:23.314Z,1.60
2018-06-25T19:58:51.483Z,1.70
2018-06-25T20:04:12.519Z,1.97
2018-06-25T20:06:40.512Z,2.03
2018-06-25T20:09:10.729Z,1.97
2018-06-25T20:11:38.754Z,2.00
2018-06-25T20:14:08.594Z,2.20
2018-06-25T20:16:36.593Z,2.20
2018-06-25T20:19:04.494Z,1.77
2018-06-25T20:21:32.464Z,1.80
2018-06-25T20:24:00.397Z,2.83
2018-06-25T20:26:28.226Z,2.90
2018-06-25T20:28:56.023Z,2.13
2018-06-25T20:31:23.812Z,2.03
2018-06-25T20:33:51.859Z,2.43
2018-06-25T20:36:19.790Z,2.63
2018-06-25T20:38:47.532Z,2.27
2018-06-25T20:41:15.364Z,2.30
2018-06-25T20:44:06.616Z,2.33
2018-06-25T20:46:35.483Z,2.53
2018-06-25T20:49:03.710Z,2.10
2018-06-25T20:51:31.674Z,2.40
2018-06-25T20:53:59.558Z,2.53
2018-06-25T20:56:27.367Z,2.60
2018-06-25T20:58:55.137Z,2.63
2018-06-25T21:01:22.858Z,3.13
2018-06-25T21:03:50.676Z,2.33
2018-06-25T21:06:18.621Z,2.50
2018-06-25T21:08:46.596Z,3.37
2018-06-25T21:11:14.537Z,2.37
2018-06-25T21:13:42.303Z,2.37
2018-06-25T21:16:10.234Z,2.33
2018-06-25T21:18:38.029Z,3.00
2018-06-25T21:21:06.064Z,2.60
2018-06-25T21:29:50.495Z,2.40
2018-06-25T21:32:18.226Z,2.10
2018-06-25T21:34:45.983Z,2.50
2018-06-25T21:37:14.022Z,2.07
2018-06-25T21:39:41.710Z,2.50
2018-06-25T21:42:09.567Z,2.50
2018-06-25T21:44:37.363Z,2.20
2018-06-25T21:47:05.288Z,2.30
2018-06-25T21:49:33.101Z,2.07
2018-06-25T21:52:00.857Z,2.17
2018-06-25T21:54:28.629Z,2.20
2018-06-25T21:56:56.282Z,2.10
2018-06-25T21:59:24.045Z,2.60
2018-06-25T22:01:54.456Z,2.37
2018-06-25T22:04:22.264Z,2.70
2018-06-25T22:06:50.143Z,2.60
2018-06-25T22:09:18.079Z,2.10
2018-06-25T22:11:46.170Z,2.43
2018-06-25T22:14:14.029Z,2.67
2018-06-25T22:16:42.078Z,3.20
2018-06-25T22:19:09.886Z,3.10
2018-06-25T22:21:37.853Z,3.23
2018-06-25T22:24:06.075Z,3.17
2018-06-25T22:26:33.866Z,2.97
2018-06-25T22:29:01.794Z,2.80
2018-06-25T22:31:29.538Z,2.60
2018-06-25T22:33:57.322Z,2.83
2018-06-25T22:36:25.073Z,2.83
2018-06-25T22:38:52.702Z,3.40
2018-06-25T22:41:20.450Z,3.10
2018-06-25T22:43:48.205Z,2.80
2018-06-25T22:46:16.197Z,2.90
2018-06-25T22:48:43.981Z,2.33
2018-06-25T22:51:11.925Z,2.93
2018-06-25T22:53:39.661Z,2.77
2018-06-25T22:56:07.397Z,3.10
2018-06-25T22:58:37.066Z,3.20
2018-06-25T23:01:06.790Z,2.80
2018-06-25T23:03:36.115Z,3.27
2018-06-25T23:06:03.863Z,3.07
2018-06-25T23:08:31.528Z,3.13
2018-06-25T23:10:59.320Z,3.60
2018-06-25T23:13:27.156Z,3.10
2018-06-25T23:15:55.354Z,2.93
2018-06-25T23:18:23.076Z,4.00
2018-06-25T23:20:50.833Z,3.80
2018-06-25T23:23:18.603Z,3.80
2018-06-25T23:25:46.463Z,3.30
2018-06-25T23:28:14.260Z,3.57
2018-06-25T23:30:42.081Z,3.50
2018-06-25T23:33:09.793Z,3.93
2018-06-25T23:35:37.404Z,4.20
2018-06-25T23:38:05.173Z,3.57
2018-06-25T23:40:32.923Z,3.67
2018-06-25T23:43:00.796Z,3.73
2018-06-25T23:45:28.629Z,3.63
2018-06-25T23:47:56.417Z,3.50
2018-06-25T23:50:24.192Z,3.80
2018-06-25T23:52:51.904Z,3.73
2018-06-25T23:55:19.643Z,3.40
2018-06-25T23:57:47.539Z,3.43
